createdAt,value
2019-02-08T09:17:59.061Z,112.00
2019-02-08T09:18:06.927Z,116.00
2019-02-08T09:18:21.911Z,116.00
2019-02-08T09:18:36.884Z,116.00
2019-02-08T09:18:51.875Z,116.00
2019-02-08T09:19:06.849Z,120.00
2019-02-08T09:19:21.826Z,116.00
2019-02-08T09:19:36.813Z,120.00
2019-02-08T09:19:51.800Z,120.00
2019-02-08T09:20:06.761Z,120.00
2019-02-08T09:20:21.751Z,120.00
2019-02-08T09:20:36.726Z,124.00
2019-02-08T09:20:51.715Z,124.00
2019-02-08T09:21:06.696Z,124.00
2019-02-08T09:21:21.727Z,124.00
2019-02-08T09:21:36.634Z,124.00
2019-02-08T09:21:51.608Z,128.00
2019-02-08T09:22:06.605Z,124.00
2019-02-08T09:22:21.566Z,128.00
2019-02-08T09:22:36.543Z,128.00
2019-02-08T09:22:51.561Z,128.00
2019-02-08T09:23:06.495Z,132.00
2019-02-08T09:23:21.472Z,88.00
2019-02-08T09:23:36.464Z,112.00
2019-02-08T09:23:51.441Z,32.00
2019-02-08T09:24:06.413Z,64.00
2019-02-08T09:28:26.354Z,152.00
2019-02-08T09:28:41.345Z,156.00
2019-02-08T09:28:56.305Z,156.00
2019-02-08T09:29:11.289Z,156.00
2019-02-08T09:29:26.274Z,156.00
2019-02-08T09:29:42.670Z,160.00
2019-02-08T09:29:56.239Z,160.00
2019-02-08T09:30:11.251Z,160.00
2019-02-08T09:30:26.203Z,160.00
2019-02-08T09:30:41.183Z,160.00
2019-02-08T09:30:56.165Z,160.00
2019-02-08T09:31:11.177Z,160.00
2019-02-08T09:31:26.126Z,160.00
2019-02-08T09:31:41.110Z,156.00
2019-02-08T09:31:56.091Z,160.00
2019-02-08T09:32:11.069Z,160.00
2019-02-08T09:32:26.046Z,156.00
2019-02-08T09:32:41.025Z,156.00
2019-02-08T09:32:56.007Z,156.00
2019-02-08T09:33:10.984Z,152.00
2019-02-08T09:33:25.963Z,152.00
2019-02-08T09:33:40.939Z,148.00
2019-02-08T09:33:55.915Z,144.00
2019-02-08T09:34:10.917Z,148.00
2019-02-08T09:34:25.870Z,144.00
2019-02-08T09:34:40.843Z,140.00
2019-02-08T09:34:55.823Z,140.00
2019-02-08T09:35:10.796Z,136.00
2019-02-08T09:35:25.778Z,136.00
2019-02-08T09:35:40.782Z,136.00
2019-02-08T09:35:55.728Z,136.00
2019-02-08T09:36:10.700Z,120.00
2019-02-08T09:36:25.729Z,144.00
2019-02-08T09:36:47.417Z,144.00
2019-02-08T09:36:56.625Z,144.00
2019-02-08T09:37:10.612Z,148.00
2019-02-08T09:37:25.578Z,144.00
2019-02-08T09:37:40.553Z,144.00
2019-02-08T09:37:55.528Z,148.00
2019-02-08T09:38:10.509Z,144.00
2019-02-08T09:38:25.488Z,152.00
2019-02-08T09:38:40.451Z,152.00
2019-02-08T09:38:55.426Z,152.00
2019-02-08T09:39:10.402Z,156.00
2019-02-08T09:39:25.406Z,156.00
2019-02-08T09:39:40.350Z,152.00
2019-02-08T09:39:55.326Z,156.00
2019-02-08T09:40:11.613Z,112.00
2019-02-08T09:40:25.271Z,68.00
2019-02-08T09:40:40.257Z,16.00
2019-02-08T09:40:55.225Z,52.00
2019-02-08T09:41:10.196Z,160.00
2019-02-08T09:41:25.173Z,156.00
2019-02-08T09:41:40.160Z,156.00
2019-02-08T09:41:55.118Z,156.00
2019-02-08T09:42:10.095Z,156.00
2019-02-08T09:42:25.067Z,160.00
2019-02-08T09:42:40.039Z,160.00
2019-02-08T09:42:55.015Z,140.00
2019-02-08T09:43:09.984Z,156.00
2019-02-08T09:43:24.961Z,156.00
2019-02-08T09:43:39.936Z,156.00
2019-02-08T09:43:54.909Z,160.00
2019-02-08T09:44:09.881Z,164.00
2019-02-08T09:44:24.864Z,164.00
2019-02-08T09:44:39.850Z,168.00
2019-02-08T09:44:54.803Z,172.00
2019-02-08T09:45:09.778Z,172.00
2019-02-08T09:45:24.751Z,168.00
2019-02-08T09:45:39.727Z,172.00
2019-02-08T09:45:54.696Z,172.00
2019-02-08T09:46:09.669Z,172.00
2019-02-08T09:46:24.643Z,176.00
2019-02-08T09:46:39.672Z,172.00
2019-02-08T09:46:54.595Z,176.00
2019-02-08T09:47:09.566Z,180.00
2019-02-08T09:47:24.539Z,176.00
2019-02-08T09:47:39.515Z,176.00
2019-02-08T09:47:54.484Z,176.00
2019-02-08T09:48:09.461Z,180.00
2019-02-08T09:48:24.431Z,180.00
2019-02-08T09:48:39.403Z,176.00
2019-02-08T09:48:54.381Z,176.00
2019-02-08T09:49:09.353Z,176.00
2019-02-08T09:49:24.324Z,176.00
2019-02-08T09:49:39.298Z,176.00
2019-02-08T09:49:54.271Z,172.00
2019-02-08T09:50:09.245Z,176.00
2019-02-08T09:50:24.221Z,180.00
2019-02-08T09:50:39.946Z,180.00
2019-02-08T09:50:54.165Z,180.00
2019-02-08T09:51:09.138Z,176.00
2019-02-08T09:51:24.188Z,176.00
2019-02-08T09:51:39.100Z,180.00
2019-02-08T09:51:54.086Z,176.00
2019-02-08T09:52:09.031Z,176.00
2019-02-08T09:52:24.005Z,172.00
2019-02-08T09:52:38.977Z,172.00
2019-02-08T09:52:53.947Z,172.00
2019-02-08T09:53:08.919Z,168.00
2019-02-08T09:53:23.889Z,168.00
2019-02-08T09:53:38.865Z,164.00
2019-02-08T09:53:53.835Z,164.00
2019-02-08T09:54:08.808Z,164.00
2019-02-08T09:54:23.778Z,164.00
2019-02-08T09:54:39.566Z,160.00
2019-02-08T09:54:53.740Z,160.00
2019-02-08T09:55:08.703Z,160.00
2019-02-08T09:55:23.674Z,160.00
2019-02-08T09:55:38.638Z,160.00
2019-02-08T09:55:57.820Z,156.00
2019-02-08T09:56:09.579Z,156.00
2019-02-08T09:56:23.556Z,160.00
2019-02-08T09:56:38.526Z,156.00
2019-02-08T09:56:53.540Z,156.00
2019-02-08T09:57:08.477Z,156.00
2019-02-08T09:57:23.441Z,156.00
2019-02-08T09:57:38.429Z,156.00
2019-02-08T09:57:53.394Z,156.00
2019-02-08T09:58:08.358Z,156.00
2019-02-08T09:58:23.330Z,156.00
2019-02-08T09:58:38.302Z,156.00
2019-02-08T09:58:53.275Z,160.00
2019-02-08T09:59:08.251Z,160.00
2019-02-08T09:59:23.216Z,164.00
2019-02-08T09:59:38.189Z,164.00
2019-02-08T09:59:53.161Z,160.00
2019-02-08T10:00:08.187Z,160.00
2019-02-08T10:00:23.105Z,160.00
2019-02-08T10:00:38.084Z,156.00
2019-02-08T10:00:53.046Z,156.00
2019-02-08T10:01:08.018Z,156.00
2019-02-08T10:01:22.987Z,156.00
2019-02-08T10:01:37.959Z,160.00
2019-02-08T10:01:52.932Z,160.00
2019-02-08T10:02:07.922Z,160.00
2019-02-08T10:02:22.877Z,160.00
2019-02-08T10:09:36.452Z,124.00
2019-02-08T10:09:51.416Z,120.00
2019-02-08T10:10:06.405Z,120.00
2019-02-08T10:10:21.390Z,120.00
2019-02-08T10:10:36.380Z,116.00
2019-02-08T10:10:51.366Z,116.00
2019-02-08T10:11:06.349Z,116.00
2019-02-08T10:11:21.352Z,112.00
2019-02-08T10:11:36.325Z,112.00
2019-02-08T10:11:51.302Z,112.00
2019-02-08T10:12:06.287Z,112.00
2019-02-08T10:12:21.274Z,112.00
2019-02-08T10:12:36.283Z,112.00
2019-02-08T10:12:51.241Z,112.00
2019-02-08T10:13:06.223Z,112.00
2019-02-08T10:29:11.374Z,136.00
2019-02-08T10:29:26.349Z,136.00
2019-02-08T13:16:14.767Z,80.00
2019-02-08T13:16:29.770Z,80.00
2019-02-08T13:16:44.734Z,80.00
2019-02-08T13:16:59.728Z,80.00
2019-02-08T13:17:14.712Z,80.00
2019-02-08T13:17:29.695Z,80.00
2019-02-08T13:17:44.986Z,80.00
2019-02-08T13:17:59.718Z,80.00
2019-02-08T13:18:14.658Z,80.00
2019-02-08T13:18:29.643Z,80.00
2019-02-08T13:18:44.677Z,80.00
2019-02-08T13:18:59.611Z,80.00
2019-02-08T13:19:14.607Z,80.00
2019-02-08T13:19:29.589Z,76.00
2019-02-08T13:19:44.568Z,76.00
2019-02-08T13:19:59.551Z,80.00
2019-02-08T13:20:14.529Z,76.00
2019-02-08T13:20:29.524Z,80.00
2019-02-08T13:20:44.499Z,80.00
2019-02-08T13:20:59.480Z,76.00
2019-02-08T13:21:14.463Z,76.00
2019-02-08T13:21:29.442Z,76.00
2019-02-08T13:21:44.430Z,80.00
2019-02-08T13:21:59.411Z,80.00
2019-02-08T13:22:14.393Z,80.00
2019-02-08T13:22:29.371Z,76.00
2019-02-08T13:22:44.351Z,80.00
2019-02-08T13:22:59.339Z,80.00
2019-02-08T13:23:14.317Z,80.00
2019-02-08T13:23:29.296Z,76.00
2019-02-08T13:23:44.292Z,76.00
2019-02-08T13:23:59.273Z,76.00
2019-02-08T13:24:14.238Z,76.00
2019-02-08T13:24:29.217Z,76.00
2019-02-08T13:24:44.199Z,76.00
2019-02-08T13:24:59.184Z,80.00
2019-02-08T13:25:14.162Z,80.00
2019-02-08T13:25:29.171Z,80.00
2019-02-08T13:25:44.122Z,76.00
2019-02-08T13:25:59.104Z,76.00
2019-02-08T13:26:14.084Z,76.00
2019-02-08T13:26:29.067Z,76.00
2019-02-08T13:26:44.042Z,76.00
2019-02-08T13:26:59.025Z,76.00
2019-02-08T13:27:14.005Z,76.00
2019-02-08T13:27:29.002Z,72.00
2019-02-08T13:27:43.967Z,68.00
2019-02-08T13:27:58.945Z,64.00
2019-02-08T13:28:13.927Z,76.00
2019-02-08T13:28:29.426Z,76.00
2019-02-08T13:28:43.895Z,76.00
2019-02-08T13:28:58.868Z,76.00
2019-02-08T13:29:13.851Z,80.00
2019-02-08T13:29:29.423Z,80.00
2019-02-08T13:29:43.811Z,80.00
2019-02-08T13:29:58.793Z,80.00
2019-02-08T13:30:13.773Z,80.00
2019-02-08T13:30:28.784Z,80.00
2019-02-08T13:30:43.739Z,76.00
2019-02-08T13:30:58.735Z,76.00
2019-02-08T13:31:13.696Z,80.00
2019-02-08T13:31:28.719Z,84.00
2019-02-08T13:31:43.654Z,84.00
2019-02-08T13:31:58.637Z,88.00
2019-02-08T13:32:13.615Z,88.00
2019-02-08T13:32:28.596Z,88.00
2019-02-08T13:32:43.576Z,92.00
2019-02-08T13:32:58.555Z,92.00
2019-02-08T13:33:13.533Z,92.00
2019-02-08T13:33:28.512Z,92.00
2019-02-08T13:33:43.492Z,92.00
2019-02-08T13:33:58.470Z,88.00
2019-02-08T13:34:13.451Z,88.00
2019-02-08T13:34:28.434Z,80.00
2019-02-08T13:34:43.448Z,84.00
2019-02-08T13:34:58.433Z,84.00
2019-02-08T13:35:13.385Z,84.00
2019-02-08T13:35:28.400Z,84.00
2019-02-08T13:35:43.352Z,80.00
2019-02-08T13:35:58.392Z,80.00
2019-02-08T13:36:13.287Z,80.00
2019-02-08T13:36:28.270Z,80.00
2019-02-08T13:36:43.243Z,80.00
2019-02-08T13:36:58.222Z,80.00
2019-02-08T13:37:13.201Z,84.00
2019-02-08T13:37:28.178Z,84.00
2019-02-08T13:37:43.159Z,84.00
2019-02-08T13:37:58.138Z,88.00
2019-02-08T13:38:13.118Z,88.00
2019-02-08T13:38:28.095Z,84.00
2019-02-08T13:38:43.076Z,84.00
2019-02-08T13:38:58.057Z,84.00
2019-02-08T13:39:13.033Z,84.00
2019-02-08T13:39:28.017Z,84.00
2019-02-08T13:39:43.002Z,84.00
2019-02-08T13:39:57.969Z,84.00
2019-02-08T13:40:13.919Z,84.00
2019-02-08T13:40:27.975Z,84.00
2019-02-08T13:40:42.911Z,84.00
2019-02-08T13:40:57.884Z,84.00
2019-02-08T13:41:12.862Z,84.00
2019-02-08T13:41:27.842Z,84.00
2019-02-08T13:41:42.821Z,84.00
2019-02-08T13:41:57.797Z,84.00
2019-02-08T13:42:12.777Z,88.00
2019-02-08T13:42:27.754Z,88.00
2019-02-08T13:42:42.734Z,88.00
2019-02-08T13:42:57.727Z,88.00
2019-02-08T13:43:12.731Z,92.00
2019-02-08T13:43:27.675Z,92.00
2019-02-08T13:43:42.648Z,88.00
2019-02-08T13:43:57.627Z,88.00
2019-02-08T13:44:12.613Z,88.00
2019-02-08T13:44:27.587Z,88.00
2019-02-08T13:44:42.562Z,88.00
2019-02-08T13:44:57.539Z,88.00
2019-02-08T13:45:12.517Z,88.00
2019-02-08T13:45:27.496Z,92.00
2019-02-08T13:45:42.477Z,92.00
2019-02-08T13:45:57.458Z,92.00
2019-02-08T13:46:12.434Z,92.00
2019-02-08T13:46:27.412Z,92.00
2019-02-08T13:46:42.393Z,96.00
2019-02-08T13:46:57.370Z,92.00
2019-02-08T13:47:12.347Z,96.00
2019-02-08T13:47:27.324Z,96.00
2019-02-08T13:47:42.307Z,100.00
2019-02-08T13:47:57.283Z,100.00
2019-02-08T13:48:12.262Z,100.00
2019-02-08T13:48:27.275Z,100.00
2019-02-08T13:48:42.219Z,100.00
2019-02-08T13:48:57.230Z,104.00
2019-02-08T13:49:12.173Z,100.00
2019-02-08T13:49:27.152Z,104.00
2019-02-08T13:49:42.133Z,104.00
2019-02-08T13:49:57.115Z,104.00
2019-02-08T13:50:12.090Z,104.00
2019-02-08T13:50:27.069Z,108.00
2019-02-08T13:50:42.046Z,112.00
2019-02-08T13:50:57.028Z,112.00
2019-02-08T13:51:12.004Z,112.00
2019-02-08T13:51:26.993Z,108.00
2019-02-08T13:51:41.962Z,108.00
2019-02-08T13:51:56.944Z,108.00
2019-02-08T13:52:11.918Z,104.00
2019-02-08T13:52:26.898Z,104.00
2019-02-08T13:52:41.877Z,104.00
2019-02-08T13:52:56.856Z,104.00
2019-02-08T13:53:11.838Z,100.00
2019-02-08T13:53:26.821Z,100.00
2019-02-08T13:53:41.812Z,100.00
2019-02-08T13:53:56.772Z,96.00
2019-02-08T13:54:11.749Z,96.00
2019-02-08T13:54:26.728Z,96.00
2019-02-08T13:54:41.709Z,96.00
2019-02-08T13:54:56.690Z,100.00
2019-02-08T13:55:11.668Z,104.00
2019-02-08T13:55:26.644Z,100.00
2019-02-08T13:55:41.642Z,100.00
2019-02-08T13:55:56.597Z,100.00
2019-02-08T13:56:11.600Z,100.00
2019-02-08T13:56:26.552Z,100.00
2019-02-08T13:56:41.530Z,100.00
2019-02-08T13:57:00.695Z,100.00
2019-02-08T13:57:11.486Z,100.00
2019-02-08T13:57:26.466Z,100.00
2019-02-08T13:57:41.478Z,100.00
2019-02-08T13:57:56.427Z,104.00
2019-02-08T13:58:11.399Z,100.00
2019-02-08T13:58:26.384Z,100.00
2019-02-08T13:58:41.356Z,104.00
2019-02-08T13:58:56.333Z,100.00
2019-02-08T13:59:11.312Z,104.00
2019-02-08T13:59:26.289Z,100.00
2019-02-08T13:59:41.278Z,100.00
2019-02-08T13:59:56.252Z,100.00
2019-02-08T14:00:11.221Z,100.00
2019-02-08T14:00:26.198Z,100.00
2019-02-08T14:00:41.179Z,96.00
2019-02-08T14:00:56.156Z,96.00
2019-02-08T14:01:11.182Z,100.00
2019-02-08T14:01:26.111Z,96.00
2019-02-08T14:01:41.087Z,96.00
2019-02-08T14:01:56.064Z,96.00
2019-02-08T14:02:11.042Z,100.00
2019-02-08T14:02:26.099Z,100.00
2019-02-08T14:02:42.614Z,100.00
2019-02-08T14:02:55.979Z,100.00
2019-02-08T14:03:10.964Z,100.00
2019-02-08T14:03:25.939Z,96.00
2019-02-08T14:03:40.915Z,96.00
2019-02-08T14:03:55.895Z,100.00
2019-02-08T14:04:11.811Z,100.00
2019-02-08T14:04:25.850Z,100.00
2019-02-08T14:04:40.829Z,104.00
2019-02-08T14:04:55.806Z,100.00
2019-02-08T14:05:10.784Z,100.00
2019-02-08T14:05:25.761Z,96.00
2019-02-08T14:05:40.739Z,96.00
2019-02-08T14:05:55.717Z,92.00
2019-02-08T14:06:10.695Z,96.00
2019-02-08T14:06:25.737Z,92.00
2019-02-08T14:06:40.649Z,92.00
2019-02-08T14:06:55.628Z,92.00
2019-02-08T14:07:10.609Z,96.00
2019-02-08T14:07:25.585Z,96.00
2019-02-08T14:07:40.565Z,96.00
2019-02-08T14:07:55.549Z,96.00
2019-02-08T14:08:10.523Z,96.00
2019-02-08T14:08:25.500Z,96.00
2019-02-08T14:08:40.479Z,96.00
2019-02-08T14:08:55.457Z,96.00
2019-02-08T14:09:10.435Z,96.00
2019-02-08T14:09:25.416Z,96.00
2019-02-08T14:09:40.394Z,96.00
2019-02-08T14:09:55.372Z,96.00
2019-02-08T14:10:10.354Z,96.00
2019-02-08T14:10:25.335Z,96.00
2019-02-08T14:10:40.317Z,96.00
2019-02-08T14:10:55.292Z,96.00
2019-02-08T14:11:10.268Z,96.00
2019-02-08T14:11:25.249Z,96.00
2019-02-08T14:11:40.282Z,92.00
2019-02-08T14:11:55.208Z,96.00
2019-02-08T14:12:10.183Z,96.00
2019-02-08T14:12:25.179Z,92.00
2019-02-08T14:12:40.949Z,92.00
2019-02-08T14:12:55.127Z,84.00
2019-02-08T14:13:10.098Z,88.00
2019-02-08T14:13:25.114Z,92.00
2019-02-08T14:13:40.894Z,92.00
2019-02-08T14:13:55.036Z,92.00
2019-02-08T14:14:10.018Z,96.00
2019-02-08T14:14:24.999Z,96.00
2019-02-08T14:14:39.976Z,96.00
2019-02-08T14:14:54.953Z,100.00
2019-02-08T14:15:09.987Z,100.00
2019-02-08T14:15:24.923Z,104.00
2019-02-08T14:15:39.893Z,104.00
2019-02-08T14:15:54.879Z,108.00
2019-02-08T14:16:09.853Z,112.00
2019-02-08T14:16:24.833Z,108.00
2019-02-08T14:16:39.811Z,108.00
2019-02-08T14:16:54.792Z,108.00
2019-02-08T14:17:09.786Z,112.00
2019-02-08T14:17:24.749Z,112.00
2019-02-08T14:17:39.729Z,112.00
2019-02-08T14:17:54.712Z,112.00
2019-02-08T14:18:09.686Z,112.00
2019-02-08T14:18:24.665Z,112.00
2019-02-08T14:18:39.663Z,112.00
2019-02-08T14:18:54.626Z,112.00
2019-02-08T14:19:09.608Z,112.00
2019-02-08T14:19:24.586Z,112.00
2019-02-08T14:19:39.582Z,112.00
2019-02-08T14:19:54.544Z,108.00
2019-02-08T14:20:09.524Z,108.00
2019-02-08T14:20:24.514Z,112.00
2019-02-08T14:20:39.477Z,108.00
2019-02-08T14:20:54.457Z,108.00
2019-02-08T14:21:09.437Z,108.00
2019-02-08T14:21:24.416Z,108.00
2019-02-08T14:21:39.394Z,112.00
2019-02-08T14:21:54.385Z,112.00
2019-02-08T14:22:09.353Z,112.00
2019-02-08T14:22:24.784Z,112.00
2019-02-08T14:22:39.319Z,108.00
2019-02-08T14:22:54.296Z,112.00
2019-02-08T14:23:09.284Z,112.00
2019-02-08T14:23:24.256Z,112.00
2019-02-08T14:23:39.276Z,112.00
2019-02-08T14:23:54.250Z,108.00
2019-02-08T14:24:09.200Z,108.00
2019-02-08T14:24:24.172Z,108.00
2019-02-08T14:24:39.156Z,96.00
2019-02-08T14:24:54.127Z,112.00
2019-02-08T14:25:09.112Z,112.00
2019-02-08T14:25:24.093Z,112.00
2019-02-08T14:25:39.070Z,116.00
2019-02-08T14:25:54.048Z,116.00
2019-02-08T14:26:09.027Z,116.00
2019-02-08T14:26:24.004Z,116.00
2019-02-08T14:26:38.983Z,120.00
2019-02-08T14:26:53.993Z,124.00
2019-02-08T14:27:08.953Z,128.00
2019-02-08T14:27:23.925Z,132.00
2019-02-08T14:27:38.907Z,132.00
2019-02-08T14:27:53.882Z,132.00
2019-02-08T14:28:08.860Z,136.00
2019-02-08T14:28:23.838Z,140.00
2019-02-08T14:28:38.828Z,120.00
2019-02-08T14:28:53.797Z,136.00
2019-02-08T14:29:08.779Z,136.00
2019-02-08T14:29:23.754Z,140.00
2019-02-08T14:29:38.733Z,144.00
2019-02-08T14:29:53.714Z,140.00
2019-02-08T14:30:08.697Z,140.00
2019-02-08T14:30:23.670Z,144.00
2019-02-08T14:30:38.651Z,144.00
2019-02-08T14:30:53.629Z,144.00
2019-02-08T14:31:08.613Z,144.00
2019-02-08T14:31:23.587Z,144.00
2019-02-08T14:31:38.565Z,140.00
2019-02-08T14:31:53.580Z,144.00
2019-02-08T14:32:08.528Z,140.00
2019-02-08T14:32:23.504Z,144.00
2019-02-08T14:32:39.429Z,140.00
2019-02-08T14:32:53.469Z,140.00
2019-02-08T14:33:08.467Z,140.00
2019-02-08T14:33:23.422Z,140.00
2019-02-08T14:33:38.404Z,140.00
2019-02-08T14:33:53.377Z,140.00
2019-02-08T14:34:08.356Z,140.00
2019-02-08T14:34:23.335Z,140.00
2019-02-08T14:34:43.500Z,140.00
2019-02-08T14:34:54.291Z,140.00
2019-02-08T14:35:08.276Z,140.00
2019-02-08T14:35:23.317Z,140.00
2019-02-08T14:35:38.918Z,140.00
2019-02-08T14:35:53.226Z,136.00
2019-02-08T14:36:08.196Z,136.00
2019-02-08T14:36:23.173Z,132.00
2019-02-08T14:36:38.156Z,132.00
2019-02-08T14:36:53.159Z,132.00
2019-02-08T14:37:08.142Z,128.00
2019-02-08T14:37:23.093Z,124.00
2019-02-08T14:37:38.072Z,124.00
2019-02-08T14:37:53.053Z,124.00
2019-02-08T14:38:08.026Z,124.00
2019-02-08T14:38:23.001Z,124.00
2019-02-08T14:38:37.982Z,120.00
2019-02-08T14:38:52.958Z,120.00
2019-02-08T14:39:07.940Z,120.00
2019-02-08T14:39:22.918Z,116.00
2019-02-08T14:39:37.910Z,120.00
2019-02-08T14:39:52.875Z,120.00
2019-02-08T14:40:07.861Z,116.00
2019-02-08T14:40:22.834Z,116.00
2019-02-08T14:40:37.814Z,116.00
2019-02-08T14:40:52.790Z,116.00
2019-02-08T14:41:07.772Z,116.00
2019-02-08T14:41:23.422Z,120.00
2019-02-08T14:41:37.729Z,120.00
2019-02-08T14:41:52.710Z,124.00
2019-02-08T14:42:07.738Z,128.00
2019-02-08T14:42:22.666Z,128.00
2019-02-08T14:42:37.646Z,128.00
2019-02-08T14:42:52.625Z,136.00
2019-02-08T14:43:07.600Z,132.00
2019-02-08T14:43:22.583Z,136.00
2019-02-08T14:43:37.556Z,136.00
2019-02-08T14:43:52.537Z,140.00
2019-02-08T14:44:07.515Z,140.00
2019-02-08T14:44:22.490Z,136.00
2019-02-08T14:44:37.474Z,132.00
2019-02-08T14:44:52.448Z,132.00
2019-02-08T14:45:07.426Z,132.00
2019-02-08T14:45:22.406Z,132.00
2019-02-08T14:45:37.383Z,132.00
2019-02-08T14:45:52.362Z,132.00
2019-02-08T14:46:07.343Z,128.00
2019-02-08T14:46:22.322Z,128.00
2019-02-08T14:46:37.300Z,128.00
2019-02-08T14:46:52.279Z,128.00
2019-02-08T14:47:07.277Z,128.00
2019-02-08T14:47:22.263Z,128.00
2019-02-08T14:47:37.217Z,132.00
2019-02-08T14:47:52.199Z,132.00
2019-02-08T14:48:07.174Z,128.00
2019-02-08T14:48:22.165Z,124.00
2019-02-08T14:48:37.131Z,124.00
2019-02-08T14:48:52.116Z,120.00
2019-02-08T14:49:07.092Z,120.00
2019-02-08T14:49:22.068Z,120.00
2019-02-08T14:49:37.051Z,120.00
2019-02-08T14:49:52.028Z,116.00
2019-02-08T14:50:07.041Z,108.00
2019-02-08T14:50:21.990Z,108.00
2019-02-08T14:50:36.973Z,104.00
2019-02-08T14:50:51.945Z,108.00
2019-02-08T14:51:06.926Z,108.00
2019-02-08T14:51:21.907Z,104.00
2019-02-08T14:51:36.901Z,100.00
2019-02-08T14:51:51.863Z,104.00
2019-02-08T14:52:06.887Z,100.00
2019-02-08T14:52:21.822Z,100.00
2019-02-08T14:52:36.798Z,96.00
2019-02-08T14:52:51.776Z,100.00
2019-02-08T14:53:06.757Z,92.00
2019-02-08T14:53:21.736Z,96.00
2019-02-08T14:53:36.715Z,92.00
2019-02-08T14:53:51.693Z,88.00
2019-02-08T14:54:06.672Z,88.00
2019-02-08T14:54:21.651Z,84.00
2019-02-08T14:54:36.630Z,84.00
2019-02-08T14:54:51.613Z,84.00
2019-02-08T14:55:06.590Z,80.00
2019-02-08T14:55:21.566Z,80.00
2019-02-08T14:55:36.545Z,80.00
2019-02-08T14:55:51.524Z,80.00
2019-02-08T14:56:06.503Z,80.00
2019-02-08T14:56:21.497Z,80.00
2019-02-08T14:56:36.505Z,80.00
2019-02-08T14:56:51.438Z,80.00
2019-02-08T14:57:06.416Z,76.00
2019-02-08T14:57:21.424Z,76.00
2019-02-08T14:57:36.371Z,76.00
2019-02-08T14:57:51.354Z,76.00
2019-02-08T14:58:06.327Z,80.00
2019-02-08T14:58:21.307Z,76.00
2019-02-08T14:58:36.286Z,80.00
2019-02-08T14:58:51.925Z,80.00
2019-02-08T14:59:06.249Z,80.00
2019-02-08T14:59:21.227Z,84.00
2019-02-08T14:59:36.200Z,80.00
2019-02-08T14:59:51.201Z,88.00
2019-02-08T15:00:06.159Z,88.00
2019-02-08T15:00:21.137Z,88.00
2019-02-08T15:00:36.113Z,92.00
2019-02-08T15:00:51.089Z,92.00
2019-02-08T15:01:06.076Z,96.00
2019-02-08T15:01:21.045Z,96.00
2019-02-08T15:01:36.023Z,100.00
2019-02-08T15:01:51.006Z,100.00
2019-02-08T15:02:05.980Z,100.00
2019-02-08T15:02:20.959Z,104.00
2019-02-08T15:02:35.953Z,100.00
2019-02-08T15:02:50.915Z,104.00
2019-02-08T15:03:05.896Z,104.00
2019-02-08T15:03:20.871Z,104.00
2019-02-08T15:03:35.848Z,104.00
2019-02-08T15:03:50.832Z,104.00
2019-02-08T15:04:07.589Z,108.00
2019-02-08T15:04:20.783Z,108.00
2019-02-08T15:04:35.761Z,104.00
2019-02-08T15:04:50.740Z,104.00
2019-02-08T15:05:05.722Z,104.00
2019-02-08T15:05:20.697Z,100.00
2019-02-08T15:05:35.679Z,104.00
2019-02-08T15:05:50.659Z,100.00
2019-02-08T15:06:05.637Z,100.00
2019-02-08T15:06:20.621Z,100.00
2019-02-08T15:06:35.601Z,100.00
2019-02-08T15:06:50.572Z,100.00
2019-02-08T15:07:05.559Z,100.00
2019-02-08T15:07:20.552Z,96.00
2019-02-08T15:07:35.546Z,96.00
2019-02-08T15:07:50.491Z,100.00
2019-02-08T15:08:05.467Z,96.00
2019-02-08T15:08:20.442Z,96.00
2019-02-08T15:08:35.432Z,92.00
2019-02-08T15:08:50.406Z,96.00
2019-02-08T15:09:05.380Z,96.00
2019-02-08T15:09:20.359Z,96.00
2019-02-08T15:09:35.338Z,96.00
2019-02-08T15:09:50.318Z,96.00
2019-02-08T15:10:05.305Z,96.00
2019-02-08T15:10:20.273Z,96.00
2019-02-08T15:10:35.251Z,96.00
2019-02-08T15:10:50.230Z,96.00
2019-02-08T15:11:05.221Z,92.00
2019-02-08T15:11:20.189Z,92.00
2019-02-08T15:11:35.167Z,92.00
2019-02-08T15:11:50.147Z,92.00
2019-02-08T15:12:05.124Z,92.00
2019-02-08T15:12:20.100Z,96.00
2019-02-08T15:12:35.083Z,92.00
2019-02-08T15:12:50.079Z,96.00
2019-02-08T15:13:05.038Z,96.00
2019-02-08T15:13:20.034Z,92.00
2019-02-08T15:13:34.991Z,92.00
2019-02-08T15:13:49.970Z,96.00
2019-02-08T15:14:04.951Z,92.00
2019-02-08T15:14:19.928Z,92.00
2019-02-08T15:14:34.907Z,92.00
2019-02-08T15:14:49.890Z,92.00
2019-02-08T15:15:04.866Z,92.00
2019-02-08T15:15:19.849Z,88.00
2019-02-08T15:15:34.833Z,88.00
2019-02-08T15:15:49.812Z,88.00
2019-02-08T15:16:04.784Z,92.00
2019-02-08T15:16:19.821Z,92.00
2019-02-08T15:16:34.750Z,92.00
2019-02-08T15:16:49.722Z,88.00
2019-02-08T15:17:04.702Z,88.00
2019-02-08T15:17:19.684Z,88.00
2019-02-08T15:17:34.691Z,88.00
2019-02-08T15:17:49.639Z,88.00
2019-02-08T15:18:04.618Z,88.00
2019-02-08T15:18:19.599Z,88.00
2019-02-08T15:18:34.591Z,84.00
2019-02-08T15:18:49.570Z,84.00
2019-02-08T15:19:04.555Z,88.00
2019-02-08T15:19:19.511Z,88.00
2019-02-08T15:19:34.491Z,88.00
2019-02-08T15:19:49.468Z,88.00
2019-02-08T15:20:04.449Z,84.00
2019-02-08T15:20:19.436Z,84.00
2019-02-08T15:20:34.406Z,84.00
2019-02-08T15:20:49.388Z,84.00
2019-02-08T15:21:04.363Z,84.00
2019-02-08T15:21:19.340Z,84.00
2019-02-08T15:21:34.319Z,84.00
2019-02-08T15:21:49.296Z,88.00
2019-02-08T15:22:04.274Z,84.00
2019-02-08T15:22:19.250Z,84.00
2019-02-08T15:22:34.232Z,84.00
2019-02-08T15:22:49.210Z,84.00
2019-02-08T15:23:04.189Z,80.00
2019-02-08T15:23:19.165Z,84.00
2019-02-08T15:23:34.145Z,80.00
2019-02-08T15:23:49.121Z,84.00
2019-02-08T15:24:04.132Z,84.00
2019-02-08T15:24:19.082Z,84.00
2019-02-08T15:24:34.060Z,80.00
2019-02-08T15:24:49.037Z,80.00
2019-02-08T15:25:04.061Z,76.00
2019-02-08T15:25:18.998Z,80.00
2019-02-08T15:25:33.985Z,76.00
2019-02-08T15:25:48.959Z,80.00
2019-02-08T15:26:03.935Z,76.00
2019-02-08T15:26:18.918Z,76.00
2019-02-08T15:26:33.895Z,76.00
2019-02-08T15:26:48.883Z,76.00
2019-02-08T15:27:03.855Z,72.00
2019-02-08T15:27:24.180Z,76.00
2019-02-08T15:27:34.809Z,72.00
2019-02-08T15:27:48.793Z,72.00
2019-02-08T15:28:03.770Z,72.00
2019-02-08T15:28:18.748Z,68.00
2019-02-08T15:28:33.725Z,68.00
2019-02-08T15:28:48.703Z,68.00
2019-02-08T15:29:03.701Z,68.00
2019-02-08T15:29:18.661Z,68.00
2019-02-08T15:29:33.640Z,68.00
2019-02-08T15:29:50.156Z,64.00
2019-02-08T15:30:03.600Z,68.00
2019-02-08T15:30:18.577Z,68.00
2019-02-08T15:30:33.556Z,52.00
2019-02-08T15:30:48.537Z,60.00
2019-02-08T15:31:03.514Z,48.00
2019-02-08T15:31:18.494Z,52.00
2019-02-08T15:31:33.475Z,60.00
2019-02-08T15:31:48.449Z,60.00
2019-02-08T15:32:03.427Z,60.00
2019-02-08T15:32:18.407Z,60.00
2019-02-08T15:32:33.386Z,64.00
2019-02-08T15:32:48.368Z,64.00
2019-02-08T15:33:03.359Z,64.00
2019-02-08T15:33:18.323Z,64.00
2019-02-08T15:33:33.302Z,64.00
2019-02-08T15:33:48.922Z,64.00
2019-02-08T15:34:03.258Z,64.00
2019-02-08T15:34:18.239Z,64.00
2019-02-08T15:34:33.219Z,60.00
2019-02-08T15:34:48.196Z,64.00
2019-02-08T15:35:03.182Z,64.00
2019-02-08T15:35:18.155Z,64.00
2019-02-08T15:35:33.173Z,64.00
2019-02-08T15:35:48.114Z,64.00
2019-02-08T15:36:03.092Z,64.00
2019-02-08T15:36:18.073Z,48.00
2019-02-08T15:36:33.051Z,60.00
2019-02-08T15:36:49.316Z,64.00
2019-02-08T15:37:03.012Z,64.00
2019-02-08T15:37:25.567Z,60.00
2019-02-08T15:37:32.965Z,64.00
2019-02-08T15:37:47.944Z,44.00
2019-02-08T15:38:02.951Z,60.00
2019-02-08T15:38:17.902Z,60.00
2019-02-08T15:38:32.882Z,60.00
2019-02-08T15:38:47.862Z,56.00
2019-02-08T15:39:02.839Z,56.00
2019-02-08T15:39:17.820Z,60.00
2019-02-08T15:39:32.795Z,56.00
2019-02-08T15:39:47.775Z,56.00
2019-02-08T15:40:02.754Z,56.00
2019-02-08T15:40:17.732Z,56.00
2019-02-08T15:40:32.709Z,56.00
2019-02-08T15:40:47.687Z,56.00